Terminal Aerodrome Forecast
Issued by NWS Pittsburgh, PA

Current Version | Previous Version | Graphics & Text | Print | Product List | Glossary On
Versions: 1 2 3 4 5 6 7 8 9 10 11 12 13 14 15 16 17 18 19 20 21 22 23 24 25 26 27 28 29 30
000
FTUS41 KPBZ 281905 AAA
TAFPIT
TAF AMD
KPIT 281905Z 2819/2924 30015G25KT P6SM VCSH BKN025
     FM290000 29010KT P6SM SCT025
     FM290900 VRB04KT 5SM BR FEW020
     FM291500 16005KT P6SM SCT150=

USA.gov is the U.S. government's official web portal to all federal, state and local government web resources and services.